Flight Track Log - Related Links

Times and Time Zones

All times are in EDT time to prevent confusion due to time zone crossing. See the RPA3346 flight status page for this flight to view local times or setup timezone preferences in your user account.

Time Position Orientation Groundspeed Altitude Reporting Facility
EDT Latitude Longitude Course Direction KTS MPH feet Rate Location/Type
Sun 06:30:58 PM 35.1950 -80.9356 30° Northeast 151 174 1,400  Level Atlanta Center
Sun 06:31:35 PM 35.1658 -80.9342 178° South 157 181 2,400 2,022 Climbing Atlanta Center
Sun 06:32:30 PM 35.1189 -80.8978 148° Southeast 234 269 4,500 2,459 Climbing Atlanta Center
Sun 06:33:37 PM 35.0936 -80.8047 108° East 287 330 7,400 1,846 Climbing Atlanta Center
Sun 06:34:27 PM 35.1022 -80.7358 81° East 284 327 8,100 1,377 Climbing Atlanta Center
Sun 06:34:38 PM 35.1036 -80.7106 86° East 291 335 8,800 2,600 Climbing Atlanta Center
Sun 06:35:00 PM 35.2158 -80.5554 30° Northeast  Level FlightAware Approximate
Sun 06:35:27 PM 35.1119 -80.6364 82° East 311 358 10,700  Level Atlanta Center
Sun 06:36:00 PM 35.2933 -80.5000 30° Northeast  Level FlightAware Approximate
Sun 06:36:27 PM 35.1681 -80.5581 49° Northeast 305 351 12,400  Level Atlanta Center
Sun 06:37:27 PM 35.2617 -80.5439 North 274 315 14,000 1,100 Climbing Atlanta Center
Sun 06:38:27 PM 35.3344 -80.4644 42° Northeast 332 382 14,600 1,450 Climbing Atlanta Center
Sun 06:39:27 PM 35.3728 -80.3456 68° East 338 389 16,900 1,987 Climbing Atlanta Center
Sun 06:41:01 PM 35.4331 -80.1450 70° East 372 428 19,700 1,686 Climbing Washington Center
Sun 06:42:00 PM 35.4603 -80.0292 74° East 379 436 21,200 1,513 Climbing Washington Center
Sun 06:43:00 PM 35.4944 -79.8958 72° East 389 448 22,700 1,388 Climbing Washington Center
Sun 06:44:01 PM 35.5283 -79.7597 73° East 402 463 24,000 1,412 Climbing Washington Center
Sun 06:44:59 PM 35.5644 -79.6186 72° East 415 478 25,500 1,462 Climbing Washington Center
Sun 06:46:00 PM 35.6072 -79.4650 71° East 431 496 26,900 934 Climbing Washington Center
Sun 06:47:01 PM 35.6508 -79.3394 67° East 436 502 27,400 496 Climbing Washington Center
Sun 06:48:01 PM 35.7097 -79.1939 63° Northeast 452 520 27,900 661 Climbing Washington Center
Sun 06:48:59 PM 35.8006 -79.0775 46° Northeast 462 532 28,700 550 Climbing Washington Center
Sun 06:50:01 PM 35.9036 -78.9769 38° Northeast 462 532 29,000 148 Climbing Washington Center
Sun 06:51:01 PM 36.0089 -78.8736 38° Northeast 467 537 29,000  Level Washington Center
Sun 06:51:59 PM 36.1097 -78.7697 40° Northeast 467 537 29,000  Level Washington Center
Sun 06:53:00 PM 36.2125 -78.6658 39° Northeast 472 543 29,000  Level Washington Center
Sun 06:54:00 PM 36.3175 -78.5592 39° Northeast 477 549 29,000  Level Washington Center
Sun 06:55:02 PM 36.4222 -78.4547 39° Northeast 477 549 29,000  Level Washington Center
Sun 06:56:00 PM 36.5250 -78.3472 40° Northeast 477 549 29,000  Level Washington Center
Sun 06:57:01 PM 36.6294 -78.2422 39° Northeast 477 549 29,000 -298 Level Washington Center
Sun 06:58:01 PM 36.7281 -78.1317 42° Northeast 482 555 28,400 -655 Descending Washington Center
Sun 06:59:00 PM 36.8325 -78.0261 39° Northeast 482 555 27,700 -706 Descending Washington Center
Sun 07:00:00 PM 36.9325 -77.9278 38° Northeast 470 541 27,000 -850 Descending Washington Center
Sun 07:01:00 PM 37.0464 -77.8636 24° Northeast 457 526 26,000 -496 Descending Washington Center
Sun 07:02:01 PM 37.1600 -77.8019 23° Northeast 444 511 26,000  Level Washington Center
Sun 07:02:59 PM 37.2758 -77.7425 22° Northeast 444 511 26,000  Level Washington Center
Sun 07:03:59 PM 37.3875 -77.6828 23° Northeast 439 505 26,000  Level Washington Center
Sun 07:04:59 PM 37.5011 -77.6206 23° Northeast 439 505 26,000 -595 Level Washington Center
Sun 07:06:00 PM 37.6106 -77.5606 23° Northeast 439 505 24,800 -1,450 Descending Washington Center
Sun 07:06:59 PM 37.7158 -77.5031 23° Northeast 432 497 23,100 -908 Descending Washington Center
Sun 07:07:59 PM 37.8189 -77.4450 24° Northeast 411 473 23,000 -49 Descending Washington Center
Sun 07:09:01 PM 37.9261 -77.3897 22° Northeast 411 473 23,000 -246 Level Washington Center
Sun 07:10:01 PM 38.0292 -77.3289 25° Northeast 406 467 22,500 -1,424 Descending Washington Center
Sun 07:10:59 PM 38.1406 -77.2736 21° North 397 457 20,200 -2,237 Descending Washington Center
Sun 07:11:59 PM 38.2414 -77.2175 24° Northeast 397 457 18,100 -2,033 Descending Washington Center
Sun 07:13:00 PM 38.3339 -77.1614 25° Northeast 384 442 16,100 -1,967 Descending Washington Center
Sun 07:14:01 PM 38.4061 -77.0647 46° Northeast 369 425 14,100 -1,967 Descending Washington Center
Sun 07:15:02 PM 38.4781 -76.9708 46° Northeast 364 419 12,100 -1,576 Descending Washington Center
Sun 07:15:59 PM 38.5439 -76.8764 48° Northeast 358 412 11,000 -712 Descending Washington Center
Sun 07:17:00 PM 38.6092 -76.7872 47° Northeast 348 400 10,700 -793 Descending Washington Center
Sun 07:18:00 PM 38.6664 -76.7111 46° Northeast 321 369 9,400 -1,559 Descending Washington Center
Sun 07:19:57 PM 38.7667 -76.5667 48° Northeast 275 316 6,100 -1,186 Descending Potomac TRACON
Sun 07:20:57 PM 38.8167 -76.5000 46° Northeast 272 313 5,900 -793 Descending Potomac TRACON
Sun 07:21:58 PM 38.8833 -76.4167 44° Northeast 270 311 4,500 -893 Descending Potomac TRACON
Sun 07:22:58 PM 38.9333 -76.3500 46° Northeast 266 306 4,100 -189 Descending Potomac TRACON
Sun 07:24:05 PM 39.0167 -76.3667 351° North 266 306 4,100 -472 Level Potomac TRACON
Sun 07:25:05 PM 39.0667 -76.4167 322° Northwest 256 295 3,100 -850 Descending Potomac TRACON
Sun 07:26:05 PM 39.0667 -76.5000 270° West 212 244 2,400 -300 Descending Potomac TRACON
Sun 07:27:05 PM 39.0667 -76.5667 270° West 174 200 2,500 -350 Climbing Potomac TRACON
Sun 07:28:05 PM 39.1000 -76.6000 322° Northwest 160 184 1,700 -783 Descending Potomac TRACON
Sun 07:29:00 PM 39.1333 -76.6333 322° Northwest 136 157 1,000 -764 Descending Potomac TRACON
Sun 07:30:00 PM 39.1667 -76.6667 339° North  Level FlightAware Approximate
Sun 07:37:00 PM 39.1754 -76.6683 339° North  Level Estimated
Sun 07:38:00 PM 39.1754 -76.6683 339° North  Level Estimated
Sun 07:39:00 PM 39.1754 -76.6683 339° North  Level Estimated

Login

Don't have an account? Register now (free) for customized features, flight alerts, and more!